TimeMST,TemperatureF,Dew PointF,Humidity,Sea Level PressureIn,VisibilityMPH,Wind Direction,Wind SpeedMPH,Gust SpeedMPH,PrecipitationIn,Events,Conditions,WindDirDegrees,DateUTC
12:15 AM,12.7,10.2,90,29.89,10.0,Calm,Calm,-,N/A,,Clear,0,2013-01-07 07:15:00
12:35 AM,13.6,10.9,89,29.89,10.0,WSW,6.9,-,N/A,,Clear,250,2013-01-07 07:35:00
12:55 AM,14.0,11.3,89,29.89,10.0,West,4.6,-,N/A,,Clear,260,2013-01-07 07:55:00
1:15 AM,14.7,12.0,89,29.89,10.0,Calm,Calm,-,N/A,,Clear,0,2013-01-07 08:15:00
1:35 AM,15.4,12.7,89,29.90,10.0,West,4.6,-,N/A,,Clear,270,2013-01-07 08:35:00
1:55 AM,14.9,12.0,88,29.90,10.0,West,3.5,-,N/A,,Clear,260,2013-01-07 08:55:00
2:15 AM,16.2,13.5,89,29.92,10.0,WNW,4.6,-,N/A,,Clear,290,2013-01-07 09:15:00
2:35 AM,18.1,14.9,87,29.91,10.0,Calm,Calm,-,N/A,,Clear,0,2013-01-07 09:35:00
2:55 AM,19.8,16.0,85,29.90,10.0,Calm,Calm,-,N/A,,Clear,0,2013-01-07 09:55:00
3:15 AM,25.0,19.0,78,29.90,10.0,SW,4.6,-,N/A,,Clear,230,2013-01-07 10:15:00
3:35 AM,27.5,19.0,71,29.91,10.0,WSW,6.9,-,N/A,,Clear,250,2013-01-07 10:35:00
3:55 AM,24.6,17.2,74,29.91,10.0,SSW,5.8,-,N/A,,Clear,200,2013-01-07 10:55:00
4:15 AM,24.6,17.8,75,29.91,10.0,WSW,4.6,-,N/A,,Clear,240,2013-01-07 11:15:00
4:35 AM,23.2,18.0,80,29.92,10.0,West,11.5,-,N/A,,Clear,260,2013-01-07 11:35:00
5:35 AM,23.0,18.1,82,29.95,10.0,WSW,9.2,-,N/A,,Clear,250,2013-01-07 12:35:00
5:55 AM,21.9,17.1,82,29.95,10.0,West,8.1,-,N/A,,Clear,280,2013-01-07 12:55:00
6:15 AM,21.2,16.7,83,29.95,10.0,West,5.8,-,N/A,,Clear,260,2013-01-07 13:15:00
6:35 AM,20.5,16.0,83,29.96,10.0,SW,3.5,-,N/A,,Clear,230,2013-01-07 13:35:00
6:55 AM,19.9,15.6,83,29.96,10.0,WSW,5.8,-,N/A,,Clear,250,2013-01-07 13:55:00
7:15 AM,19.8,15.8,85,29.96,10.0,Calm,Calm,-,N/A,,Clear,0,2013-01-07 14:15:00
7:35 AM,18.5,14.5,85,29.97,10.0,WNW,6.9,-,N/A,,Clear,290,2013-01-07 14:35:00
7:55 AM,23.5,15.8,72,29.97,10.0,Calm,Calm,-,N/A,,Clear,0,2013-01-07 14:55:00
8:15 AM,22.8,16.3,76,29.98,10.0,West,4.6,-,N/A,,Clear,260,2013-01-07 15:15:00
8:35 AM,26.6,17.6,69,29.99,10.0,WSW,6.9,-,N/A,,Clear,250,2013-01-07 15:35:00
8:55 AM,29.8,18.1,62,29.99,10.0,West,5.8,-,N/A,,Clear,270,2013-01-07 15:55:00
9:15 AM,31.6,20.3,63,29.99,10.0,NNW,3.5,-,N/A,,Clear,330,2013-01-07 16:15:00
9:35 AM,34.3,21.0,58,30.00,10.0,NNW,10.4,-,N/A,,Clear,340,2013-01-07 16:35:00
9:55 AM,35.1,21.4,57,29.99,10.0,NNE,12.7,-,N/A,,Clear,20,2013-01-07 16:55:00
10:15 AM,36.1,22.1,57,29.98,10.0,NNE,17.3,-,N/A,,Clear,20,2013-01-07 17:15:00
10:35 AM,37.2,22.6,56,30.00,10.0,ENE,5.8,13.8,N/A,,Clear,70,2013-01-07 17:35:00
10:55 AM,37.6,21.4,52,30.00,10.0,Calm,Calm,-,N/A,,Clear,0,2013-01-07 17:55:00
11:15 AM,39.0,22.5,52,29.99,10.0,Calm,Calm,-,N/A,,Clear,0,2013-01-07 18:15:00
11:35 AM,40.3,22.3,49,29.98,10.0,Calm,Calm,-,N/A,,Clear,0,2013-01-07 18:35:00
12:15 PM,42.3,23.9,48,29.95,10.0,Calm,Calm,-,N/A,,Clear,0,2013-01-07 19:15:00
12:35 PM,40.6,26.6,57,29.95,10.0,WSW,4.6,-,N/A,,Clear,250,2013-01-07 19:35:00
12:55 PM,41.0,25.7,55,29.94,10.0,SW,3.5,-,N/A,,Clear,230,2013-01-07 19:55:00
1:15 PM,41.4,25.3,53,29.94,10.0,Calm,Calm,-,N/A,,Clear,0,2013-01-07 20:15:00
1:35 PM,41.4,25.5,53,29.93,10.0,West,3.5,-,N/A,,Clear,260,2013-01-07 20:35:00
1:55 PM,42.1,25.2,51,29.94,10.0,Calm,Calm,-,N/A,,Clear,0,2013-01-07 20:55:00
2:15 PM,42.3,25.7,52,29.93,10.0,SW,3.5,-,N/A,,Clear,230,2013-01-07 21:15:00
2:35 PM,42.1,25.5,52,29.94,10.0,Calm,Calm,-,N/A,,Clear,0,2013-01-07 21:35:00
2:55 PM,41.9,25.3,52,29.94,10.0,South,3.5,-,N/A,,Clear,190,2013-01-07 21:55:00
3:15 PM,41.5,25.9,54,29.93,10.0,SSW,3.5,-,N/A,,Clear,200,2013-01-07 22:15:00
3:35 PM,41.4,26.1,55,29.93,10.0,Calm,Calm,-,N/A,,Clear,0,2013-01-07 22:35:00
4:15 PM,39.0,25.7,59,29.92,10.0,Calm,Calm,-,N/A,,Clear,0,2013-01-07 23:15:00
4:35 PM,35.8,26.2,68,29.92,10.0,Calm,Calm,-,N/A,,Clear,0,2013-01-07 23:35:00
4:55 PM,32.0,25.0,75,29.92,10.0,Calm,Calm,-,N/A,,Clear,0,2013-01-07 23:55:00
5:15 PM,29.5,23.9,80,29.92,10.0,Calm,Calm,-,N/A,,Clear,0,2013-01-08 00:15:00
5:35 PM,29.3,24.4,82,29.91,10.0,SW,3.5,-,N/A,,Clear,230,2013-01-08 00:35:00
5:55 PM,26.8,23.2,86,29.91,10.0,West,3.5,-,N/A,,Clear,260,2013-01-08 00:55:00
6:15 PM,26.6,22.1,83,29.91,10.0,West,4.6,-,N/A,,Clear,270,2013-01-08 01:15:00
6:35 PM,27.1,23.0,84,29.91,10.0,West,4.6,-,N/A,,Clear,260,2013-01-08 01:35:00
6:55 PM,25.5,22.1,87,29.90,10.0,Calm,Calm,-,N/A,,Clear,0,2013-01-08 01:55:00
7:15 PM,24.8,21.6,87,29.90,10.0,Calm,Calm,-,N/A,,Clear,0,2013-01-08 02:15:00
7:35 PM,25.5,22.3,88,29.90,10.0,Calm,Calm,-,N/A,,Clear,0,2013-01-08 02:35:00
7:55 PM,22.3,18.5,85,29.89,10.0,West,3.5,-,N/A,,Clear,260,2013-01-08 02:55:00
8:15 PM,24.3,21.6,89,29.89,10.0,Calm,Calm,-,N/A,,Clear,0,2013-01-08 03:15:00
8:35 PM,22.5,19.9,90,29.87,10.0,SW,3.5,-,N/A,,Clear,230,2013-01-08 03:35:00
8:55 PM,21.4,18.9,90,29.87,10.0,Calm,Calm,-,N/A,,Clear,0,2013-01-08 03:55:00
9:15 PM,22.6,19.4,87,29.87,10.0,NW,3.5,-,N/A,,Clear,310,2013-01-08 04:15:00
9:35 PM,21.2,18.1,88,29.86,10.0,Calm,Calm,-,N/A,,Clear,0,2013-01-08 04:35:00
9:55 PM,19.9,17.8,91,29.86,10.0,Calm,Calm,-,N/A,,Clear,0,2013-01-08 04:55:00
10:15 PM,19.9,16.5,87,29.85,10.0,Calm,Calm,-,N/A,,Clear,0,2013-01-08 05:15:00
10:35 PM,19.0,16.2,89,29.85,10.0,Calm,Calm,-,N/A,,Clear,0,2013-01-08 05:35:00
10:55 PM,18.9,15.1,85,29.85,10.0,Calm,Calm,-,N/A,,Clear,0,2013-01-08 05:55:00
11:15 PM,18.3,15.3,88,29.84,10.0,Calm,Calm,-,N/A,,Clear,0,2013-01-08 06:15:00
11:35 PM,16.9,14.2,89,29.82,10.0,West,3.5,-,N/A,,Clear,260,2013-01-08 06:35:00
11:55 PM,17.4,14.9,90,29.81,10.0,SW,3.5,-,N/A,,Clear,230,2013-01-08 06:55:00